LIRQ/FLR METAR and TAF weather

Enter ICAO airport designator
Station Type Date Time Source
LIRQ METAR 2020/02/25 11:20 UTC NOAA

LIRQ 251120Z 30004KT 250V340 9999 FEW027 BKN045 16/10 Q1012


Station Type Date Time Source
LIRQ Decoded METAR 2020/02/25 11:20 UTC NOAA

Firenze / Peretola, Italy (LIRQ) 43-48N 011-12E 38M
Feb 25, 2020 - 06:20 AM EST / 2020.02.25 1120 UTC
Wind: from the WNW (300 degrees) at 5 MPH (4 KT) (direction variable):0
Visibility: greater than 7 mile(s):0
Sky conditions: mostly cloudy
Temperature: 60 F (16 C)
Dew Point: 50 F (10 C)
Relative Humidity: 67%
Pressure (altimeter): 29.88 in. Hg (1012 hPa)
ob: LIRQ 251120Z 30004KT 250V340 9999 FEW027 BKN045 16/10 Q1012
cycle: 11

Station Type Date Time Source
LIRQ TAF 2020/02/25 12:21 UTC NOAA

TAF LIRQ 251100Z 2512/2612 24010KT 9999 SCT020 BKN050
BECMG 2517/2519 14008KT
TEMPO 2606/2612 SHRA

Example: see airport list